JOIDES Resolution — 5BMM3 — position and weather

sailwx.info

Track history (hours):
 
Tides and Currents Weather Stations Pressure Air Temp Water Temp Dewpoint Dewpoint Depression Visibility Wind Speed Wind Dir Waves Ship Positions

Oceanographic research ship JOIDES Resolution (USA)

Ex D5BC.

Ship's website: http://joidesresolution.org/

Detailed information on ship capabilities available from University of Delaware's Ocean Information Center.

Last reported at 2019-Sep-23 23:04 UTC. Time now 2019-Oct-17 15:49 UTC.
Position N 27°29' W 115°42'.
Warning: this ship's position is 23 days out of date.

Length 143 m; draft 6.1 m.

Type: Dredging. MMSI: 208440424.

Date/timePositionNaut miles runAvg speedWind from/ knotsBaromVisibWave heightAir tempDewpointWater temp
2019-Sep-23 23:04N 27°29' W 115°42'111.7
2019-Sep-23 23:00N 27°29' W 115°43'811.6
2019-Sep-23 22:18N 27°36' W 115°49'411.6
2019-Sep-23 21:59N 27°39' W 115°51'2711.9
2019-Sep-23 19:41N 28°00' W 116°09'412.4
2019-Sep-23 19:21N 28°04' W 116°11'4812.3
2019-Sep-23 15:28N 28°50' W 116°26'612.8
2019-Sep-23 15:00N 28°56' W 116°28'1712.9
2019-Sep-23 13:39N 29°13' W 116°34'212.7
2019-Sep-23 13:30N 29°14' W 116°35'612.7
2019-Sep-23 13:00N 29°20' W 116°37'712.4
2019-Sep-23 12:28N 29°27' W 116°39'2112.0
2019-Sep-23 10:41N 29°48' W 116°44'211.7
2019-Sep-23 10:30N 29°50' W 116°45'611.8
2019-Sep-23 10:00N 29°56' W 116°46'1212.1
2019-Sep-23 09:02N 30°07' W 116°49'4512.5
2019-Sep-23 05:24N 30°52' W 116°55'512.8
2019-Sep-23 05:00N 30°57' W 116°56'612.6
2019-Sep-23 04:30N 31°03' W 116°59'612.3
2019-Sep-23 04:00N 31°09' W 117°01'712.9
2019-Sep-23 03:30N 31°15' W 117°03'1012.6
2019-Sep-23 02:44N 31°24' W 117°06'912.0
2019-Sep-23 01:59N 31°33' W 117°08'612.0
2019-Sep-23 01:30N 31°36' W 117°02'611.8
2019-Sep-23 01:00N 31°40' W 116°57'611.6
2019-Sep-23 00:28N 31°44' W 116°51'511.8
2019-Sep-23 00:00N 31°47' W 116°45'4 1.9
2019-Sep-22 21:49N 31°47' W 116°41'2 7.0
2019-Sep-22 21:30N 31°49' W 116°43'5 9.1
2019-Sep-22 21:00N 31°51' W 116°47'5 9.1
2019-Sep-22 20:30N 31°54' W 116°51'510.5
2019-Sep-22 20:00N 31°57' W 116°57'510.7
2019-Sep-22 19:30N 31°59' W 117°02'612.3
2019-Sep-22 19:00N 32°04' W 117°07'612.5
2019-Sep-22 18:30N 32°09' W 117°10'612.7
2019-Sep-22 18:00N 32°15' W 117°14'612.7
2019-Sep-22 17:30N 32°21' W 117°17'612.3
2019-Sep-22 17:00N 32°26' W 117°20'611.6
2019-Sep-22 16:30N 32°32' W 117°20'510.8
2019-Sep-22 16:01N 32°36' W 117°15'4 7.1
2019-Sep-22 15:31N 32°39' W 117°14'4 8.0
2019-Sep-22 15:01N 32°43' W 117°13'2 3.2
2019-Sep-22 14:28N 32°43' W 117°10'0 0.0
2019-Sep-22 13:58N 32°43' W 117°10'0 0.0
2019-Sep-22 13:28N 32°43' W 117°10'0 0.0
2019-Sep-22 12:58N 32°43' W 117°10'0 0.0
2019-Sep-22 12:28N 32°43' W 117°10'0 0.0
2019-Sep-22 11:58N 32°43' W 117°10'0 0.0
2019-Sep-22 11:28N 32°43' W 117°10'0 0.0
2019-Sep-22 10:58N 32°43' W 117°10'0 0.0
2019-Sep-22 10:28N 32°43' W 117°10'0 0.0
2019-Sep-22 09:58N 32°43' W 117°10'0 0.0
2019-Sep-22 09:28N 32°43' W 117°10'0 0.0
2019-Sep-22 08:58N 32°43' W 117°10'0 0.0
2019-Sep-22 08:28N 32°43' W 117°10'0 0.0
2019-Sep-22 07:58N 32°43' W 117°10'0 0.0
2019-Sep-22 07:28N 32°43' W 117°10'0 0.0
2019-Sep-22 06:58N 32°43' W 117°10'0 0.0
2019-Sep-22 06:28N 32°43' W 117°10'0 0.0
2019-Sep-22 05:58N 32°43' W 117°10'0 0.0
2019-Sep-22 05:28N 32°43' W 117°10'0 0.0
2019-Sep-22 04:58N 32°43' W 117°10'0 0.0
2019-Sep-22 04:31N 32°43' W 117°10'0 0.0
2019-Sep-22 04:01N 32°43' W 117°10'0 0.0
2019-Sep-22 03:30N 32°43' W 117°10'0 0.0
2019-Sep-22 03:00N 32°43' W 117°10'0 0.0
2019-Sep-22 02:30N 32°43' W 117°10'0 0.0
2019-Sep-22 01:57N 32°43' W 117°10'0 0.0
2019-Sep-22 01:30N 32°43' W 117°10'0 0.0
2019-Sep-22 01:00N 32°43' W 117°10'0 0.0
2019-Sep-22 00:30N 32°43' W 117°10'0 0.0
2019-Sep-22 00:00N 32°43' W 117°10'0 0.0
2019-Sep-21 23:30N 32°43' W 117°10'0 0.0
2019-Sep-21 23:00N 32°43' W 117°10'0 0.0
2019-Sep-21 22:30N 32°43' W 117°10'0 0.0
2019-Sep-21 22:00N 32°43' W 117°10'0 0.0
2019-Sep-21 21:30N 32°43' W 117°10'0 0.0
2019-Sep-21 21:00N 32°43' W 117°10'0 0.0
2019-Sep-21 20:27N 32°43' W 117°10'0 0.0
2019-Sep-21 20:00N 32°43' W 117°10'0 0.0
2019-Sep-21 19:30N 32°43' W 117°10'0 0.0
2019-Sep-21 19:00N 32°43' W 117°10'0 0.0
2019-Sep-21 18:30N 32°43' W 117°10'0 0.0
2019-Sep-21 18:00N 32°43' W 117°10'0 0.0
2019-Sep-21 17:30N 32°43' W 117°10'0 0.0
2019-Sep-21 17:00N 32°43' W 117°10'0 0.0
2019-Sep-21 16:30N 32°43' W 117°10'0 0.0
2019-Sep-21 16:00N 32°43' W 117°10'0 0.0
2019-Sep-21 15:30N 32°43' W 117°10'0 0.0
2019-Sep-21 15:00N 32°43' W 117°10'0 0.0
2019-Sep-21 14:30N 32°43' W 117°10'0 0.0
2019-Sep-21 14:00N 32°43' W 117°10'0 0.0
2019-Sep-21 13:30N 32°43' W 117°10'0 0.0
2019-Sep-21 13:00N 32°43' W 117°10'0 0.0
2019-Sep-21 12:30N 32°43' W 117°10'0 0.0
2019-Sep-21 12:00N 32°43' W 117°10'0 0.0
2019-Sep-21 11:30N 32°43' W 117°10'0 0.0
2019-Sep-21 11:00N 32°43' W 117°10'0 0.0
2019-Sep-21 10:30N 32°43' W 117°10'0 0.0
2019-Sep-21 10:00N 32°43' W 117°10'0 0.0
2019-Sep-21 09:30N 32°43' W 117°10'0 0.0
2019-Sep-21 09:00N 32°43' W 117°10'0 0.0
2019-Sep-21 08:30N 32°43' W 117°10'0 0.0
2019-Sep-21 08:00N 32°43' W 117°10'0 0.0
2019-Sep-21 07:30N 32°43' W 117°10'0 0.0
2019-Sep-21 07:00N 32°43' W 117°10'0 0.0
2019-Sep-21 06:30N 32°43' W 117°10'0 0.0
2019-Sep-21 06:00N 32°43' W 117°10'0 0.0
2019-Sep-21 05:30N 32°43' W 117°10'0 0.0
2019-Sep-21 05:00N 32°43' W 117°10'0 0.0
2019-Sep-21 04:30N 32°43' W 117°10'0 0.0
2019-Sep-21 04:00N 32°43' W 117°10'0 0.0
2019-Sep-21 03:30N 32°43' W 117°10'0 0.0
2019-Sep-21 03:00N 32°43' W 117°10'0 0.0
2019-Sep-21 02:30N 32°43' W 117°10'0 0.0
2019-Sep-21 02:00N 32°43' W 117°10'0 0.0
2019-Sep-21 01:30N 32°43' W 117°10'0 0.0
2019-Sep-21 01:00N 32°43' W 117°10'0 0.0
2019-Sep-21 00:24N 32°43' W 117°10'0 0.0
2019-Sep-21 00:00N 32°43' W 117°10'0 0.0
2019-Sep-20 23:30N 32°43' W 117°10'0 0.0
2019-Sep-20 23:00N 32°43' W 117°10'0 0.0
2019-Sep-20 22:30N 32°43' W 117°10'0 0.0
2019-Sep-20 21:59N 32°43' W 117°10'0 0.0
2019-Sep-20 21:29N 32°43' W 117°10'0 0.0
2019-Sep-20 20:59N 32°43' W 117°10'0 0.0
2019-Sep-20 20:26N 32°43' W 117°10'0 0.0
2019-Sep-20 19:59N 32°43' W 117°10'0 0.0
2019-Sep-20 19:29N 32°43' W 117°10'0 0.0
2019-Sep-20 18:59N 32°43' W 117°10'0 0.0
2019-Sep-20 18:29N 32°43' W 117°10'0 0.0
2019-Sep-20 17:59N 32°43' W 117°10'0 0.0
2019-Sep-20 17:29N 32°43' W 117°10'0 0.0
2019-Sep-20 16:59N 32°43' W 117°10'0 0.0
2019-Sep-20 16:29N 32°43' W 117°10'0 0.0
2019-Sep-20 15:59N 32°43' W 117°10'0 0.0
2019-Sep-20 15:29N 32°43' W 117°10'0 0.0
2019-Sep-20 14:59N 32°43' W 117°10'0 0.0
2019-Sep-20 14:29N 32°43' W 117°10'0 0.0
2019-Sep-20 13:59N 32°43' W 117°10'0 0.0
2019-Sep-20 13:29N 32°43' W 117°10'0 0.0
2019-Sep-20 12:59N 32°43' W 117°10'0 0.0
2019-Sep-20 12:29N 32°43' W 117°10'0 0.0
2019-Sep-20 11:59N 32°43' W 117°10'0 0.0
2019-Sep-20 11:29N 32°43' W 117°10'0 0.0
2019-Sep-20 10:59N 32°43' W 117°10'0 0.0
2019-Sep-20 10:29N 32°43' W 117°10'0 0.0
2019-Sep-20 09:59N 32°43' W 117°10'0 0.0
2019-Sep-20 09:29N 32°43' W 117°10'0 0.0
2019-Sep-20 08:59N 32°43' W 117°10'0 0.0
2019-Sep-20 08:29N 32°43' W 117°10'0 0.0
2019-Sep-20 07:59N 32°43' W 117°10'0 0.0
2019-Sep-20 07:29N 32°43' W 117°10'0 0.0
2019-Sep-20 06:59N 32°43' W 117°10'0 0.0
2019-Sep-20 06:29N 32°43' W 117°10'0 0.0
2019-Sep-20 05:59N 32°43' W 117°10'0 0.0
2019-Sep-20 05:29N 32°43' W 117°10'0 0.0
2019-Sep-20 04:59N 32°43' W 117°10'0 0.0
2019-Sep-20 04:29N 32°43' W 117°10'0 0.0
2019-Sep-20 03:59N 32°43' W 117°10'0 0.0
2019-Sep-20 03:29N 32°43' W 117°10'0 0.0
2019-Sep-20 02:59N 32°43' W 117°10'0 0.0
2019-Sep-20 02:29N 32°43' W 117°10'0 0.0
2019-Sep-20 01:59N 32°43' W 117°10'0 0.0
2019-Sep-20 01:29N 32°43' W 117°10'0 0.0
2019-Sep-20 00:59N 32°43' W 117°10'0 0.0
2019-Sep-20 00:29N 32°43' W 117°10'0 0.0
2019-Sep-19 23:59N 32°43' W 117°10'0 0.0
2019-Sep-19 23:29N 32°43' W 117°10'0 0.0
2019-Sep-19 22:59N 32°43' W 117°10'0 0.0
2019-Sep-19 22:29N 32°43' W 117°10'0 0.0
2019-Sep-19 21:59N 32°43' W 117°10'0 0.0
2019-Sep-19 21:29N 32°43' W 117°10'0 0.0
2019-Sep-19 20:59N 32°43' W 117°10'0 0.0
2019-Sep-19 20:29N 32°43' W 117°10'0 0.0
2019-Sep-19 19:59N 32°43' W 117°10'0 0.0
2019-Sep-19 19:29N 32°43' W 117°10'0 0.0
2019-Sep-19 18:59N 32°43' W 117°10'0 0.0
2019-Sep-19 18:29N 32°43' W 117°10'0 0.0
2019-Sep-19 17:59N 32°43' W 117°10'0 0.0
2019-Sep-19 17:29N 32°43' W 117°10'0 0.0
2019-Sep-19 16:59N 32°43' W 117°10'0 0.0
2019-Sep-19 16:28N 32°43' W 117°10'0 0.0
2019-Sep-19 15:58N 32°43' W 117°10'0 0.0
2019-Sep-19 15:28N 32°43' W 117°10'0 0.0
2019-Sep-19 14:58N 32°43' W 117°10'0 0.0
2019-Sep-19 14:28N 32°43' W 117°10'0 0.0
2019-Sep-19 13:58N 32°43' W 117°10'0 0.0
2019-Sep-19 13:28N 32°43' W 117°10'0 0.0
2019-Sep-19 12:58N 32°43' W 117°10'0 0.0
2019-Sep-19 12:28N 32°43' W 117°10'0 0.0
2019-Sep-19 11:58N 32°43' W 117°10'0 0.0
2019-Sep-19 11:28N 32°43' W 117°10'0 0.0
2019-Sep-19 10:58N 32°43' W 117°10'0 0.0
2019-Sep-19 10:28N 32°43' W 117°10'0 0.0
2019-Sep-19 09:58N 32°43' W 117°10'0 0.0
2019-Sep-19 09:28N 32°43' W 117°10'0 0.0
2019-Sep-19 08:58N 32°43' W 117°10'0 0.0
2019-Sep-19 08:28N 32°43' W 117°10'0 0.0
2019-Sep-19 07:58N 32°43' W 117°10'0 0.0
2019-Sep-19 07:28N 32°43' W 117°10'0 0.0
2019-Sep-19 06:58N 32°43' W 117°10'0 0.0
2019-Sep-19 06:28N 32°43' W 117°10'0 0.0
2019-Sep-19 05:58N 32°43' W 117°10'0 0.0
2019-Sep-19 05:28N 32°43' W 117°10'0 0.0
2019-Sep-19 04:58N 32°43' W 117°10'0 0.0
2019-Sep-19 04:28N 32°43' W 117°10'0 0.0
2019-Sep-19 03:58N 32°43' W 117°10'0 0.0
2019-Sep-19 03:28N 32°43' W 117°10'0 0.0
2019-Sep-19 02:58N 32°43' W 117°10'0 0.0
2019-Sep-19 02:28N 32°43' W 117°10'0 0.0
2019-Sep-19 01:58N 32°43' W 117°10'0 0.0
2019-Sep-19 01:28N 32°43' W 117°10'0 0.0
2019-Sep-19 00:58N 32°43' W 117°10'0 0.0
2019-Sep-19 00:28N 32°43' W 117°10'0 0.0
2019-Sep-18 23:58N 32°43' W 117°10'0 0.0
2019-Sep-18 23:28N 32°43' W 117°10'0 0.0
2019-Sep-18 22:58N 32°43' W 117°10'0 0.0
2019-Sep-18 22:28N 32°43' W 117°10'0 0.0
2019-Sep-18 21:58N 32°43' W 117°10'0 0.0
2019-Sep-18 21:28N 32°43' W 117°10'0 0.0
2019-Sep-18 20:58N 32°43' W 117°10'0 0.0
2019-Sep-18 20:28N 32°43' W 117°10'0 0.0
2019-Sep-18 19:58N 32°43' W 117°10'0 0.0
2019-Sep-18 19:28N 32°43' W 117°10'0 0.0
2019-Sep-18 18:58N 32°43' W 117°10'0 0.0
2019-Sep-18 18:28N 32°43' W 117°10'0 0.0
2019-Sep-18 17:58N 32°43' W 117°10'0 0.0
2019-Sep-18 17:28N 32°43' W 117°10'0 0.0
2019-Sep-18 16:58N 32°43' W 117°10'0 0.0
2019-Sep-18 16:28N 32°43' W 117°10'0 0.0
2019-Sep-18 15:58N 32°43' W 117°10'0 0.0
2019-Sep-18 15:28N 32°43' W 117°10'0 0.0
2019-Sep-18 14:58N 32°43' W 117°10'0 0.0
2019-Sep-18 14:28N 32°43' W 117°10'0 0.0
2019-Sep-18 13:58N 32°43' W 117°10'0 0.0
2019-Sep-18 13:28N 32°43' W 117°10'0 0.0
2019-Sep-18 12:58N 32°43' W 117°10'0 0.0
2019-Sep-18 12:28N 32°43' W 117°10'0 0.0
2019-Sep-18 11:58N 32°43' W 117°10'0 0.0
2019-Sep-18 11:31N 32°43' W 117°10'0 0.0
2019-Sep-18 11:01N 32°43' W 117°10'0 0.0
2019-Sep-18 10:30N 32°43' W 117°10'0 0.0
2019-Sep-18 10:00N 32°43' W 117°10'0 0.0
2019-Sep-18 09:27N 32°43' W 117°10'0 0.0
2019-Sep-18 09:00N 32°43' W 117°10'0 0.0
2019-Sep-18 08:30N 32°43' W 117°10'0 0.0
2019-Sep-18 08:00N 32°43' W 117°10'0 0.0
2019-Sep-18 07:30N 32°43' W 117°10'0 0.0
2019-Sep-18 07:00N 32°43' W 117°10'0 0.0
2019-Sep-18 06:30N 32°43' W 117°10'0 0.0
2019-Sep-18 06:00N 32°43' W 117°10'0 0.0
2019-Sep-18 05:30N 32°43' W 117°10'0 0.0
2019-Sep-18 05:00N 32°43' W 117°10'0 0.0
2019-Sep-18 04:30N 32°43' W 117°10'0 0.0
2019-Sep-18 04:00N 32°43' W 117°10'0 0.0
2019-Sep-18 03:30N 32°43' W 117°10'0 0.0
2019-Sep-18 03:00N 32°43' W 117°10'0 0.0
2019-Sep-18 02:30N 32°43' W 117°10'0 0.0
2019-Sep-18 02:00N 32°43' W 117°10'0 0.0
2019-Sep-18 01:30N 32°43' W 117°10'0 0.0
2019-Sep-18 01:00N 32°43' W 117°10'0 0.0
2019-Sep-18 00:30N 32°43' W 117°10'0 0.0
2019-Sep-18 00:00N 32°43' W 117°10'0 0.0
2019-Sep-17 23:30N 32°43' W 117°10'0 0.0
2019-Sep-17 23:00N 32°43' W 117°10'0 0.0
2019-Sep-17 22:30N 32°43' W 117°10'0 0.0
2019-Sep-17 22:00N 32°43' W 117°10'0 0.0
2019-Sep-17 21:30N 32°43' W 117°10'0 0.0
2019-Sep-17 21:00N 32°43' W 117°10'0 0.0
2019-Sep-17 20:30N 32°43' W 117°10'0 0.0
2019-Sep-17 20:00N 32°43' W 117°10'0 0.0
2019-Sep-17 19:30N 32°43' W 117°10'0 0.0
2019-Sep-17 19:00N 32°43' W 117°10'0 0.0
2019-Sep-17 18:30N 32°43' W 117°10'0 0.0
2019-Sep-17 18:00N 32°43' W 117°10'0 0.0
2019-Sep-17 17:30N 32°43' W 117°10'0 0.0
2019-Sep-17 17:00N 32°43' W 117°10'0 0.0
2019-Sep-17 16:30N 32°43' W 117°10'0 0.0
2019-Sep-17 16:00N 32°43' W 117°10'0 0.0
2019-Sep-17 15:30N 32°43' W 117°10'0 0.0
2019-Sep-17 15:00N 32°43' W 117°10'0 0.0
2019-Sep-17 14:30N 32°43' W 117°10'0 0.0
2019-Sep-17 14:00N 32°43' W 117°10'0 0.0
2019-Sep-17 13:30N 32°43' W 117°10'0 0.0
2019-Sep-17 13:00N 32°43' W 117°10'0 0.0
2019-Sep-17 12:30N 32°43' W 117°10'0 0.0
2019-Sep-17 12:00N 32°43' W 117°10'0 0.0
2019-Sep-17 11:30N 32°43' W 117°10'0 0.0
2019-Sep-17 11:00N 32°43' W 117°10'0 0.0
2019-Sep-17 10:30N 32°43' W 117°10'0 0.0
2019-Sep-17 10:00N 32°43' W 117°10'0 0.0
2019-Sep-17 09:30N 32°43' W 117°10'0 0.0
2019-Sep-17 09:00N 32°43' W 117°10'0 0.0
2019-Sep-17 08:30N 32°43' W 117°10'0 0.0
2019-Sep-17 08:00N 32°43' W 117°10'0 0.0
2019-Sep-17 07:30N 32°43' W 117°10'0 0.0
2019-Sep-17 07:00N 32°43' W 117°10'0 0.0
2019-Sep-17 06:30N 32°43' W 117°10'0 0.0
2019-Sep-17 06:00N 32°43' W 117°10'0 0.0
2019-Sep-17 05:30N 32°43' W 117°10'0 0.0
2019-Sep-17 04:59N 32°43' W 117°10'0 0.0
2019-Sep-17 04:29N 32°43' W 117°10'0 0.0
2019-Sep-17 03:59N 32°43' W 117°10'0 0.0
2019-Sep-17 03:29N 32°43' W 117°10'0 0.0
2019-Sep-17 02:59N 32°43' W 117°10'0 0.0
2019-Sep-17 02:29N 32°43' W 117°10'0 0.0
2019-Sep-17 01:59N 32°43' W 117°10'0 0.0
2019-Sep-17 01:29N 32°43' W 117°10'0 0.0
2019-Sep-17 00:59N 32°43' W 117°10'0 0.0
2019-Sep-17 00:29N 32°43' W 117°10'0 0.0
2019-Sep-16 23:59N 32°43' W 117°10'0 0.0
2019-Sep-16 23:29N 32°43' W 117°10'0 0.0
2019-Sep-16 22:59N 32°43' W 117°10'0 0.0
2019-Sep-16 22:29N 32°43' W 117°10'0 0.0
2019-Sep-16 21:59N 32°43' W 117°10'0 0.0
2019-Sep-16 21:29N 32°43' W 117°10'0 0.0
2019-Sep-16 20:59N 32°43' W 117°10'0 0.0
2019-Sep-16 20:29N 32°43' W 117°10'0 0.0
2019-Sep-16 19:56N 32°43' W 117°10'0 0.0
2019-Sep-16 19:29N 32°43' W 117°10'0 0.0
2019-Sep-16 18:59N 32°43' W 117°10'0 0.0
2019-Sep-16 18:29N 32°43' W 117°10'0 0.0
2019-Sep-16 17:59N 32°43' W 117°10'0 0.0
2019-Sep-16 17:29N 32°43' W 117°10'0 0.0
2019-Sep-16 16:59N 32°43' W 117°10'0 0.0
2019-Sep-16 16:29N 32°43' W 117°10'0 0.0
2019-Sep-16 15:59N 32°43' W 117°10'0 0.0
2019-Sep-16 15:29N 32°43' W 117°10'0 0.0
2019-Sep-16 14:59N 32°43' W 117°10'0 0.0
2019-Sep-16 14:29N 32°43' W 117°10'0 0.0
2019-Sep-16 13:59N 32°43' W 117°10'0 0.0
2019-Sep-16 13:29N 32°43' W 117°10'0 0.0
2019-Sep-16 12:59N 32°43' W 117°10'0 0.0
2019-Sep-16 12:29N 32°43' W 117°10'0 0.0
2019-Sep-16 11:59N 32°43' W 117°10'0 0.0
2019-Sep-16 11:29N 32°43' W 117°10'0 0.0
2019-Sep-16 10:59N 32°43' W 117°10'0 0.0
2019-Sep-16 10:29N 32°43' W 117°10'0 0.0
2019-Sep-16 09:59N 32°43' W 117°10'0 0.0
2019-Sep-16 09:29N 32°43' W 117°10'0 0.0
2019-Sep-16 08:59N 32°43' W 117°10'0 0.0
2019-Sep-16 08:29N 32°43' W 117°10'0 0.0
2019-Sep-16 07:59N 32°43' W 117°10'0 0.0
2019-Sep-16 07:29N 32°43' W 117°10'0 0.0
2019-Sep-16 06:59N 32°43' W 117°10'0 0.0
2019-Sep-16 06:29N 32°43' W 117°10'0 0.0
2019-Sep-16 05:59N 32°43' W 117°10'0 0.0
2019-Sep-16 05:29N 32°43' W 117°10'0 0.0
2019-Sep-16 04:59N 32°43' W 117°10'0 0.0
2019-Sep-16 04:29N 32°43' W 117°10'0 0.0
2019-Sep-16 03:59N 32°43' W 117°10'0 0.0
2019-Sep-16 03:29N 32°43' W 117°10'0 0.0
2019-Sep-16 02:59N 32°43' W 117°10'0 0.0
2019-Sep-16 02:29N 32°43' W 117°10'0 0.0
2019-Sep-16 01:59N 32°43' W 117°10'0 0.0
2019-Sep-16 01:29N 32°43' W 117°10'0 0.0
2019-Sep-16 00:59N 32°43' W 117°10'0 0.0
2019-Sep-16 00:29N 32°43' W 117°10'0 0.0
2019-Sep-15 23:59N 32°43' W 117°10'0 0.0
2019-Sep-15 23:28N 32°43' W 117°10'0 0.0
2019-Sep-15 22:58N 32°43' W 117°10'0 0.0
2019-Sep-15 22:30N 32°43' W 117°10'0 0.0
2019-Sep-15 22:00N 32°43' W 117°10'2 4.8
2019-Sep-15 21:30N 32°43' W 117°13'5 9.7
2019-Sep-15 21:00N 32°38' W 117°14'3 6.7
2019-Sep-15 20:30N 32°35' W 117°16'4 7.5
2019-Sep-15 20:00N 32°32' W 117°19'4 7.7
2019-Sep-15 19:30N 32°29' W 117°21'4 8.5
2019-Sep-15 19:00N 32°26' W 117°25'4 8.1
2019-Sep-15 18:30N 32°23' W 117°28'4 7.8
2019-Sep-15 18:00N 32°20' W 117°31'4 8.8
2019-Sep-15 17:30N 32°16' W 117°34'4 8.2
2019-Sep-15 17:00N 32°12' W 117°34'4 8.4
2019-Sep-15 16:30N 32°08' W 117°33'4 8.4
2019-Sep-15 16:00N 32°04' W 117°32'4 8.4
2019-Sep-15 15:30N 31°60' W 117°31'4 8.5
2019-Sep-15 15:00N 31°56' W 117°29'4 8.6
2019-Sep-15 14:30N 31°51' W 117°28'4 8.8
2019-Sep-15 14:00N 31°47' W 117°27'5 9.0
2019-Sep-15 13:30N 31°43' W 117°26'5 9.9
2019-Sep-15 13:00N 31°38' W 117°24'5 9.9
2019-Sep-15 12:30N 31°33' W 117°22'510.1
2019-Sep-15 12:00N 31°28' W 117°21'5 9.9
2019-Sep-15 11:30N 31°24' W 117°19'5 9.2
2019-Sep-15 11:00N 31°19' W 117°18'5 9.2
2019-Sep-15 10:30N 31°15' W 117°17'5 9.2
2019-Sep-15 10:00N 31°10' W 117°15'5 9.3
2019-Sep-15 09:30N 31°06' W 117°14'5 9.2
2019-Sep-15 09:00N 31°01' W 117°13'5 9.1
2019-Sep-15 08:30N 30°57' W 117°12'5 9.0
2019-Sep-15 07:59N 30°52' W 117°11'4 8.7
2019-Sep-15 07:30N 30°48' W 117°09'4 8.5
2019-Sep-15 07:00N 30°44' W 117°08'4 8.8
2019-Sep-15 06:30N 30°40' W 117°07'5 9.3
2019-Sep-15 06:00N 30°35' W 117°06'5 9.5
2019-Sep-15 05:30N 30°31' W 117°04'5 9.4
2019-Sep-15 05:00N 30°26' W 117°03'5 9.2
2019-Sep-15 04:28N 30°21' W 117°02'4 9.4
2019-Sep-15 04:00N 30°17' W 117°01'5 9.6
2019-Sep-15 03:30N 30°12' W 116°60'5 9.3
2019-Sep-15 03:00N 30°08' W 116°58'5 9.0
2019-Sep-15 02:30N 30°03' W 116°57'10 9.1
2019-Sep-15 01:25N 29°54' W 116°54'4 9.5
2019-Sep-15 00:58N 29°50' W 116°53'4 9.6
2019-Sep-15 00:30N 29°45' W 116°52'5 9.3
2019-Sep-14 23:57N 29°40' W 116°50'4 8.9
2019-Sep-14 23:30N 29°37' W 116°49'5 8.9
2019-Sep-14 22:59N 29°32' W 116°48'5 9.2
2019-Sep-14 22:30N 29°28' W 116°46'18 8.7
2019-Sep-14 20:24N 29°10' W 116°41'6 9.0
2019-Sep-14 19:46N 29°05' W 116°39'2 9.1
2019-Sep-14 19:30N 29°02' W 116°39'5 9.1
2019-Sep-14 18:58N 28°58' W 116°37'4 9.2
2019-Sep-14 18:30N 28°54' W 116°36'5 9.1
2019-Sep-14 18:00N 28°49' W 116°35'5 9.1
2019-Sep-14 17:30N 28°45' W 116°34'5 9.2
2019-Sep-14 16:59N 28°40' W 116°33'4 9.3
2019-Sep-14 16:30N 28°36' W 116°32'5 9.5
2019-Sep-14 16:00N 28°31' W 116°31'5 9.5
2019-Sep-14 15:30N 28°26' W 116°30'510.0
2019-Sep-14 15:00N 28°22' W 116°28'5 9.8
2019-Sep-14 14:30N 28°17' W 116°27'8 9.7
2019-Sep-14 13:41N 28°09' W 116°24'3110.1
2019-Sep-14 10:38N 27°44' W 116°05'510.5
2019-Sep-14 10:10N 27°40' W 116°01'69 9.8
2019-Sep-14 03:10N 26°47' W 115°12'1 9.4
2019-Sep-14 03:00N 26°46' W 115°11'  
Track history (hours):
 
Tides and Currents Weather Stations Pressure Air Temp Water Temp Dewpoint Dewpoint Depression Visibility Wind Speed Wind Dir Waves Ship Positions

Oceanographic research ship JOIDES Resolution (USA)

Ex D5BC.

Ship's website: http://joidesresolution.org/

Detailed information on ship capabilities available from University of Delaware's Ocean Information Center.

Last reported at 2019-Sep-23 23:04 UTC. Time now 2019-Oct-17 15:49 UTC.
Position N 27°29' W 115°42'.
Warning: this ship's position is 23 days out of date.

Length 143 m; draft 6.1 m.

Type: Dredging. MMSI: 208440424.

Date/timePositionNaut miles runAvg speedWind from/ knotsBaromVisibWave heightAir tempDewpointWater temp
2019-Sep-23 23:04N 27°29' W 115°42'111.7
2019-Sep-23 23:00N 27°29' W 115°43'811.6
2019-Sep-23 22:18N 27°36' W 115°49'411.6
2019-Sep-23 21:59N 27°39' W 115°51'2711.9
2019-Sep-23 19:41N 28°00' W 116°09'412.4
2019-Sep-23 19:21N 28°04' W 116°11'4812.3
2019-Sep-23 15:28N 28°50' W 116°26'612.8
2019-Sep-23 15:00N 28°56' W 116°28'1712.9
2019-Sep-23 13:39N 29°13' W 116°34'212.7
2019-Sep-23 13:30N 29°14' W 116°35'612.7
2019-Sep-23 13:00N 29°20' W 116°37'712.4
2019-Sep-23 12:28N 29°27' W 116°39'2112.0
2019-Sep-23 10:41N 29°48' W 116°44'211.7
2019-Sep-23 10:30N 29°50' W 116°45'611.8
2019-Sep-23 10:00N 29°56' W 116°46'1212.1
2019-Sep-23 09:02N 30°07' W 116°49'4512.5
2019-Sep-23 05:24N 30°52' W 116°55'512.8
2019-Sep-23 05:00N 30°57' W 116°56'612.6
2019-Sep-23 04:30N 31°03' W 116°59'612.3
2019-Sep-23 04:00N 31°09' W 117°01'712.9
2019-Sep-23 03:30N 31°15' W 117°03'1012.6
2019-Sep-23 02:44N 31°24' W 117°06'912.0
2019-Sep-23 01:59N 31°33' W 117°08'612.0
2019-Sep-23 01:30N 31°36' W 117°02'611.8
2019-Sep-23 01:00N 31°40' W 116°57'611.6
2019-Sep-23 00:28N 31°44' W 116°51'511.8
2019-Sep-23 00:00N 31°47' W 116°45'4 1.9
2019-Sep-22 21:49N 31°47' W 116°41'2 7.0
2019-Sep-22 21:30N 31°49' W 116°43'5 9.1
2019-Sep-22 21:00N 31°51' W 116°47'5 9.1
2019-Sep-22 20:30N 31°54' W 116°51'510.5
2019-Sep-22 20:00N 31°57' W 116°57'510.7
2019-Sep-22 19:30N 31°59' W 117°02'612.3
2019-Sep-22 19:00N 32°04' W 117°07'612.5
2019-Sep-22 18:30N 32°09' W 117°10'612.7
2019-Sep-22 18:00N 32°15' W 117°14'612.7
2019-Sep-22 17:30N 32°21' W 117°17'612.3
2019-Sep-22 17:00N 32°26' W 117°20'611.6
2019-Sep-22 16:30N 32°32' W 117°20'510.8
2019-Sep-22 16:01N 32°36' W 117°15'4 7.1
2019-Sep-22 15:31N 32°39' W 117°14'4 8.0
2019-Sep-22 15:01N 32°43' W 117°13'2 3.2
2019-Sep-22 14:28N 32°43' W 117°10'0 0.0
2019-Sep-22 13:58N 32°43' W 117°10'0 0.0
2019-Sep-22 13:28N 32°43' W 117°10'0 0.0
2019-Sep-22 12:58N 32°43' W 117°10'0 0.0
2019-Sep-22 12:28N 32°43' W 117°10'0 0.0
2019-Sep-22 11:58N 32°43' W 117°10'0 0.0
2019-Sep-22 11:28N 32°43' W 117°10'0 0.0
2019-Sep-22 10:58N 32°43' W 117°10'0 0.0
2019-Sep-22 10:28N 32°43' W 117°10'0 0.0
2019-Sep-22 09:58N 32°43' W 117°10'0 0.0
2019-Sep-22 09:28N 32°43' W 117°10'0 0.0
2019-Sep-22 08:58N 32°43' W 117°10'0 0.0
2019-Sep-22 08:28N 32°43' W 117°10'0 0.0
2019-Sep-22 07:58N 32°43' W 117°10'0 0.0
2019-Sep-22 07:28N 32°43' W 117°10'0 0.0
2019-Sep-22 06:58N 32°43' W 117°10'0 0.0
2019-Sep-22 06:28N 32°43' W 117°10'0 0.0
2019-Sep-22 05:58N 32°43' W 117°10'0 0.0
2019-Sep-22 05:28N 32°43' W 117°10'0 0.0
2019-Sep-22 04:58N 32°43' W 117°10'0 0.0
2019-Sep-22 04:31N 32°43' W 117°10'0 0.0
2019-Sep-22 04:01N 32°43' W 117°10'0 0.0
2019-Sep-22 03:30N 32°43' W 117°10'0 0.0
2019-Sep-22 03:00N 32°43' W 117°10'0 0.0
2019-Sep-22 02:30N 32°43' W 117°10'0 0.0
2019-Sep-22 01:57N 32°43' W 117°10'0 0.0
2019-Sep-22 01:30N 32°43' W 117°10'0 0.0
2019-Sep-22 01:00N 32°43' W 117°10'0 0.0
2019-Sep-22 00:30N 32°43' W 117°10'0 0.0
2019-Sep-22 00:00N 32°43' W 117°10'0 0.0
2019-Sep-21 23:30N 32°43' W 117°10'0 0.0
2019-Sep-21 23:00N 32°43' W 117°10'0 0.0
2019-Sep-21 22:30N 32°43' W 117°10'0 0.0
2019-Sep-21 22:00N 32°43' W 117°10'0 0.0
2019-Sep-21 21:30N 32°43' W 117°10'0 0.0
2019-Sep-21 21:00N 32°43' W 117°10'0 0.0
2019-Sep-21 20:27N 32°43' W 117°10'0 0.0
2019-Sep-21 20:00N 32°43' W 117°10'0 0.0
2019-Sep-21 19:30N 32°43' W 117°10'0 0.0
2019-Sep-21 19:00N 32°43' W 117°10'0 0.0
2019-Sep-21 18:30N 32°43' W 117°10'0 0.0
2019-Sep-21 18:00N 32°43' W 117°10'0 0.0
2019-Sep-21 17:30N 32°43' W 117°10'0 0.0
2019-Sep-21 17:00N 32°43' W 117°10'0 0.0
2019-Sep-21 16:30N 32°43' W 117°10'0 0.0
2019-Sep-21 16:00N 32°43' W 117°10'0 0.0
2019-Sep-21 15:30N 32°43' W 117°10'0 0.0
2019-Sep-21 15:00N 32°43' W 117°10'0 0.0
2019-Sep-21 14:30N 32°43' W 117°10'0 0.0
2019-Sep-21 14:00N 32°43' W 117°10'0 0.0
2019-Sep-21 13:30N 32°43' W 117°10'0 0.0
2019-Sep-21 13:00N 32°43' W 117°10'0 0.0
2019-Sep-21 12:30N 32°43' W 117°10'0 0.0
2019-Sep-21 12:00N 32°43' W 117°10'0 0.0
2019-Sep-21 11:30N 32°43' W 117°10'0 0.0
2019-Sep-21 11:00N 32°43' W 117°10'0 0.0
2019-Sep-21 10:30N 32°43' W 117°10'0 0.0
2019-Sep-21 10:00N 32°43' W 117°10'0 0.0
2019-Sep-21 09:30N 32°43' W 117°10'0 0.0
2019-Sep-21 09:00N 32°43' W 117°10'0 0.0
2019-Sep-21 08:30N 32°43' W 117°10'0 0.0
2019-Sep-21 08:00N 32°43' W 117°10'0 0.0
2019-Sep-21 07:30N 32°43' W 117°10'0 0.0
2019-Sep-21 07:00N 32°43' W 117°10'0 0.0
2019-Sep-21 06:30N 32°43' W 117°10'0 0.0
2019-Sep-21 06:00N 32°43' W 117°10'0 0.0
2019-Sep-21 05:30N 32°43' W 117°10'0 0.0
2019-Sep-21 05:00N 32°43' W 117°10'0 0.0
2019-Sep-21 04:30N 32°43' W 117°10'0 0.0
2019-Sep-21 04:00N 32°43' W 117°10'0 0.0
2019-Sep-21 03:30N 32°43' W 117°10'0 0.0
2019-Sep-21 03:00N 32°43' W 117°10'0 0.0
2019-Sep-21 02:30N 32°43' W 117°10'0 0.0
2019-Sep-21 02:00N 32°43' W 117°10'0 0.0
2019-Sep-21 01:30N 32°43' W 117°10'0 0.0
2019-Sep-21 01:00N 32°43' W 117°10'0 0.0
2019-Sep-21 00:24N 32°43' W 117°10'0 0.0
2019-Sep-21 00:00N 32°43' W 117°10'0 0.0
2019-Sep-20 23:30N 32°43' W 117°10'0 0.0
2019-Sep-20 23:00N 32°43' W 117°10'0 0.0
2019-Sep-20 22:30N 32°43' W 117°10'0 0.0
2019-Sep-20 21:59N 32°43' W 117°10'0 0.0
2019-Sep-20 21:29N 32°43' W 117°10'0 0.0
2019-Sep-20 20:59N 32°43' W 117°10'0 0.0
2019-Sep-20 20:26N 32°43' W 117°10'0 0.0
2019-Sep-20 19:59N 32°43' W 117°10'0 0.0
2019-Sep-20 19:29N 32°43' W 117°10'0 0.0
2019-Sep-20 18:59N 32°43' W 117°10'0 0.0
2019-Sep-20 18:29N 32°43' W 117°10'0 0.0
2019-Sep-20 17:59N 32°43' W 117°10'0 0.0
2019-Sep-20 17:29N 32°43' W 117°10'0 0.0
2019-Sep-20 16:59N 32°43' W 117°10'0 0.0
2019-Sep-20 16:29N 32°43' W 117°10'0 0.0
2019-Sep-20 15:59N 32°43' W 117°10'0 0.0
2019-Sep-20 15:29N 32°43' W 117°10'0 0.0
2019-Sep-20 14:59N 32°43' W 117°10'0 0.0
2019-Sep-20 14:29N 32°43' W 117°10'0 0.0
2019-Sep-20 13:59N 32°43' W 117°10'0 0.0
2019-Sep-20 13:29N 32°43' W 117°10'0 0.0
2019-Sep-20 12:59N 32°43' W 117°10'0 0.0
2019-Sep-20 12:29N 32°43' W 117°10'0 0.0
2019-Sep-20 11:59N 32°43' W 117°10'0 0.0
2019-Sep-20 11:29N 32°43' W 117°10'0 0.0
2019-Sep-20 10:59N 32°43' W 117°10'0 0.0
2019-Sep-20 10:29N 32°43' W 117°10'0 0.0
2019-Sep-20 09:59N 32°43' W 117°10'0 0.0
2019-Sep-20 09:29N 32°43' W 117°10'0 0.0
2019-Sep-20 08:59N 32°43' W 117°10'0 0.0
2019-Sep-20 08:29N 32°43' W 117°10'0 0.0
2019-Sep-20 07:59N 32°43' W 117°10'0 0.0
2019-Sep-20 07:29N 32°43' W 117°10'0 0.0
2019-Sep-20 06:59N 32°43' W 117°10'0 0.0
2019-Sep-20 06:29N 32°43' W 117°10'0 0.0
2019-Sep-20 05:59N 32°43' W 117°10'0 0.0
2019-Sep-20 05:29N 32°43' W 117°10'0 0.0
2019-Sep-20 04:59N 32°43' W 117°10'0 0.0
2019-Sep-20 04:29N 32°43' W 117°10'0 0.0
2019-Sep-20 03:59N 32°43' W 117°10'0 0.0
2019-Sep-20 03:29N 32°43' W 117°10'0 0.0
2019-Sep-20 02:59N 32°43' W 117°10'0 0.0
2019-Sep-20 02:29N 32°43' W 117°10'0 0.0
2019-Sep-20 01:59N 32°43' W 117°10'0 0.0
2019-Sep-20 01:29N 32°43' W 117°10'0 0.0
2019-Sep-20 00:59N 32°43' W 117°10'0 0.0
2019-Sep-20 00:29N 32°43' W 117°10'0 0.0
2019-Sep-19 23:59N 32°43' W 117°10'0 0.0
2019-Sep-19 23:29N 32°43' W 117°10'0 0.0
2019-Sep-19 22:59N 32°43' W 117°10'0 0.0
2019-Sep-19 22:29N 32°43' W 117°10'0 0.0
2019-Sep-19 21:59N 32°43' W 117°10'0 0.0
2019-Sep-19 21:29N 32°43' W 117°10'0 0.0
2019-Sep-19 20:59N 32°43' W 117°10'0 0.0
2019-Sep-19 20:29N 32°43' W 117°10'0 0.0
2019-Sep-19 19:59N 32°43' W 117°10'0 0.0
2019-Sep-19 19:29N 32°43' W 117°10'0 0.0
2019-Sep-19 18:59N 32°43' W 117°10'0 0.0
2019-Sep-19 18:29N 32°43' W 117°10'0 0.0
2019-Sep-19 17:59N 32°43' W 117°10'0 0.0
2019-Sep-19 17:29N 32°43' W 117°10'0 0.0
2019-Sep-19 16:59N 32°43' W 117°10'0 0.0
2019-Sep-19 16:28N 32°43' W 117°10'0 0.0
2019-Sep-19 15:58N 32°43' W 117°10'0 0.0
2019-Sep-19 15:28N 32°43' W 117°10'0 0.0
2019-Sep-19 14:58N 32°43' W 117°10'0 0.0
2019-Sep-19 14:28N 32°43' W 117°10'0 0.0
2019-Sep-19 13:58N 32°43' W 117°10'0 0.0
2019-Sep-19 13:28N 32°43' W 117°10'0 0.0
2019-Sep-19 12:58N 32°43' W 117°10'0 0.0
2019-Sep-19 12:28N 32°43' W 117°10'0 0.0
2019-Sep-19 11:58N 32°43' W 117°10'0 0.0
2019-Sep-19 11:28N 32°43' W 117°10'0 0.0
2019-Sep-19 10:58N 32°43' W 117°10'0 0.0
2019-Sep-19 10:28N 32°43' W 117°10'0 0.0
2019-Sep-19 09:58N 32°43' W 117°10'0 0.0
2019-Sep-19 09:28N 32°43' W 117°10'0 0.0
2019-Sep-19 08:58N 32°43' W 117°10'0 0.0
2019-Sep-19 08:28N 32°43' W 117°10'0 0.0
2019-Sep-19 07:58N 32°43' W 117°10'0 0.0
2019-Sep-19 07:28N 32°43' W 117°10'0 0.0
2019-Sep-19 06:58N 32°43' W 117°10'0 0.0
2019-Sep-19 06:28N 32°43' W 117°10'0 0.0
2019-Sep-19 05:58N 32°43' W 117°10'0 0.0
2019-Sep-19 05:28N 32°43' W 117°10'0 0.0
2019-Sep-19 04:58N 32°43' W 117°10'0 0.0
2019-Sep-19 04:28N 32°43' W 117°10'0 0.0
2019-Sep-19 03:58N 32°43' W 117°10'0 0.0
2019-Sep-19 03:28N 32°43' W 117°10'0 0.0
2019-Sep-19 02:58N 32°43' W 117°10'0 0.0
2019-Sep-19 02:28N 32°43' W 117°10'0 0.0
2019-Sep-19 01:58N 32°43' W 117°10'0 0.0
2019-Sep-19 01:28N 32°43' W 117°10'0 0.0
2019-Sep-19 00:58N 32°43' W 117°10'0 0.0
2019-Sep-19 00:28N 32°43' W 117°10'0 0.0
2019-Sep-18 23:58N 32°43' W 117°10'0 0.0
2019-Sep-18 23:28N 32°43' W 117°10'0 0.0
2019-Sep-18 22:58N 32°43' W 117°10'0 0.0
2019-Sep-18 22:28N 32°43' W 117°10'0 0.0
2019-Sep-18 21:58N 32°43' W 117°10'0 0.0
2019-Sep-18 21:28N 32°43' W 117°10'0 0.0
2019-Sep-18 20:58N 32°43' W 117°10'0 0.0
2019-Sep-18 20:28N 32°43' W 117°10'0 0.0
2019-Sep-18 19:58N 32°43' W 117°10'0 0.0
2019-Sep-18 19:28N 32°43' W 117°10'0 0.0
2019-Sep-18 18:58N 32°43' W 117°10'0 0.0
2019-Sep-18 18:28N 32°43' W 117°10'0 0.0
2019-Sep-18 17:58N 32°43' W 117°10'0 0.0
2019-Sep-18 17:28N 32°43' W 117°10'0 0.0
2019-Sep-18 16:58N 32°43' W 117°10'0 0.0
2019-Sep-18 16:28N 32°43' W 117°10'0 0.0
2019-Sep-18 15:58N 32°43' W 117°10'0 0.0
2019-Sep-18 15:28N 32°43' W 117°10'0 0.0
2019-Sep-18 14:58N 32°43' W 117°10'0 0.0
2019-Sep-18 14:28N 32°43' W 117°10'0 0.0
2019-Sep-18 13:58N 32°43' W 117°10'0 0.0
2019-Sep-18 13:28N 32°43' W 117°10'0 0.0
2019-Sep-18 12:58N 32°43' W 117°10'0 0.0
2019-Sep-18 12:28N 32°43' W 117°10'0 0.0
2019-Sep-18 11:58N 32°43' W 117°10'0 0.0
2019-Sep-18 11:31N 32°43' W 117°10'0 0.0
2019-Sep-18 11:01N 32°43' W 117°10'0 0.0
2019-Sep-18 10:30N 32°43' W 117°10'0 0.0
2019-Sep-18 10:00N 32°43' W 117°10'0 0.0
2019-Sep-18 09:27N 32°43' W 117°10'0 0.0
2019-Sep-18 09:00N 32°43' W 117°10'0 0.0
2019-Sep-18 08:30N 32°43' W 117°10'0 0.0
2019-Sep-18 08:00N 32°43' W 117°10'0 0.0
2019-Sep-18 07:30N 32°43' W 117°10'0 0.0
2019-Sep-18 07:00N 32°43' W 117°10'0 0.0
2019-Sep-18 06:30N 32°43' W 117°10'0 0.0
2019-Sep-18 06:00N 32°43' W 117°10'0 0.0
2019-Sep-18 05:30N 32°43' W 117°10'0 0.0
2019-Sep-18 05:00N 32°43' W 117°10'0 0.0
2019-Sep-18 04:30N 32°43' W 117°10'0 0.0
2019-Sep-18 04:00N 32°43' W 117°10'0 0.0
2019-Sep-18 03:30N 32°43' W 117°10'0 0.0
2019-Sep-18 03:00N 32°43' W 117°10'0 0.0
2019-Sep-18 02:30N 32°43' W 117°10'0 0.0
2019-Sep-18 02:00N 32°43' W 117°10'0 0.0
2019-Sep-18 01:30N 32°43' W 117°10'0 0.0
2019-Sep-18 01:00N 32°43' W 117°10'0 0.0
2019-Sep-18 00:30N 32°43' W 117°10'0 0.0
2019-Sep-18 00:00N 32°43' W 117°10'0 0.0
2019-Sep-17 23:30N 32°43' W 117°10'0 0.0
2019-Sep-17 23:00N 32°43' W 117°10'0 0.0
2019-Sep-17 22:30N 32°43' W 117°10'0 0.0
2019-Sep-17 22:00N 32°43' W 117°10'0 0.0
2019-Sep-17 21:30N 32°43' W 117°10'0 0.0
2019-Sep-17 21:00N 32°43' W 117°10'0 0.0
2019-Sep-17 20:30N 32°43' W 117°10'0 0.0
2019-Sep-17 20:00N 32°43' W 117°10'0 0.0
2019-Sep-17 19:30N 32°43' W 117°10'0 0.0
2019-Sep-17 19:00N 32°43' W 117°10'0 0.0
2019-Sep-17 18:30N 32°43' W 117°10'0 0.0
2019-Sep-17 18:00N 32°43' W 117°10'0 0.0
2019-Sep-17 17:30N 32°43' W 117°10'0 0.0
2019-Sep-17 17:00N 32°43' W 117°10'0 0.0
2019-Sep-17 16:30N 32°43' W 117°10'0 0.0
2019-Sep-17 16:00N 32°43' W 117°10'0 0.0
2019-Sep-17 15:30N 32°43' W 117°10'0 0.0
2019-Sep-17 15:00N 32°43' W 117°10'0 0.0
2019-Sep-17 14:30N 32°43' W 117°10'0 0.0
2019-Sep-17 14:00N 32°43' W 117°10'0 0.0
2019-Sep-17 13:30N 32°43' W 117°10'0 0.0
2019-Sep-17 13:00N 32°43' W 117°10'0 0.0
2019-Sep-17 12:30N 32°43' W 117°10'0 0.0
2019-Sep-17 12:00N 32°43' W 117°10'0 0.0
2019-Sep-17 11:30N 32°43' W 117°10'0 0.0
2019-Sep-17 11:00N 32°43' W 117°10'0 0.0
2019-Sep-17 10:30N 32°43' W 117°10'0 0.0
2019-Sep-17 10:00N 32°43' W 117°10'0 0.0
2019-Sep-17 09:30N 32°43' W 117°10'0 0.0
2019-Sep-17 09:00N 32°43' W 117°10'0 0.0
2019-Sep-17 08:30N 32°43' W 117°10'0 0.0
2019-Sep-17 08:00N 32°43' W 117°10'0 0.0
2019-Sep-17 07:30N 32°43' W 117°10'0 0.0
2019-Sep-17 07:00N 32°43' W 117°10'0 0.0
2019-Sep-17 06:30N 32°43' W 117°10'0 0.0
2019-Sep-17 06:00N 32°43' W 117°10'0 0.0
2019-Sep-17 05:30N 32°43' W 117°10'0 0.0
2019-Sep-17 04:59N 32°43' W 117°10'0 0.0
2019-Sep-17 04:29N 32°43' W 117°10'0 0.0
2019-Sep-17 03:59N 32°43' W 117°10'0 0.0
2019-Sep-17 03:29N 32°43' W 117°10'0 0.0
2019-Sep-17 02:59N 32°43' W 117°10'0 0.0
2019-Sep-17 02:29N 32°43' W 117°10'0 0.0
2019-Sep-17 01:59N 32°43' W 117°10'0 0.0
2019-Sep-17 01:29N 32°43' W 117°10'0 0.0
2019-Sep-17 00:59N 32°43' W 117°10'0 0.0
2019-Sep-17 00:29N 32°43' W 117°10'0 0.0
2019-Sep-16 23:59N 32°43' W 117°10'0 0.0
2019-Sep-16 23:29N 32°43' W 117°10'0 0.0
2019-Sep-16 22:59N 32°43' W 117°10'0 0.0
2019-Sep-16 22:29N 32°43' W 117°10'0 0.0
2019-Sep-16 21:59N 32°43' W 117°10'0 0.0
2019-Sep-16 21:29N 32°43' W 117°10'0 0.0
2019-Sep-16 20:59N 32°43' W 117°10'0 0.0
2019-Sep-16 20:29N 32°43' W 117°10'0 0.0
2019-Sep-16 19:56N 32°43' W 117°10'0 0.0
2019-Sep-16 19:29N 32°43' W 117°10'0 0.0
2019-Sep-16 18:59N 32°43' W 117°10'0 0.0
2019-Sep-16 18:29N 32°43' W 117°10'0 0.0
2019-Sep-16 17:59N 32°43' W 117°10'0 0.0
2019-Sep-16 17:29N 32°43' W 117°10'0 0.0
2019-Sep-16 16:59N 32°43' W 117°10'0 0.0
2019-Sep-16 16:29N 32°43' W 117°10'0 0.0
2019-Sep-16 15:59N 32°43' W 117°10'0 0.0
2019-Sep-16 15:29N 32°43' W 117°10'0 0.0
2019-Sep-16 14:59N 32°43' W 117°10'0 0.0
2019-Sep-16 14:29N 32°43' W 117°10'0 0.0
2019-Sep-16 13:59N 32°43' W 117°10'0 0.0
2019-Sep-16 13:29N 32°43' W 117°10'0 0.0
2019-Sep-16 12:59N 32°43' W 117°10'0 0.0
2019-Sep-16 12:29N 32°43' W 117°10'0 0.0
2019-Sep-16 11:59N 32°43' W 117°10'0 0.0
2019-Sep-16 11:29N 32°43' W 117°10'0 0.0
2019-Sep-16 10:59N 32°43' W 117°10'0 0.0
2019-Sep-16 10:29N 32°43' W 117°10'0 0.0
2019-Sep-16 09:59N 32°43' W 117°10'0 0.0
2019-Sep-16 09:29N 32°43' W 117°10'0 0.0
2019-Sep-16 08:59N 32°43' W 117°10'0 0.0
2019-Sep-16 08:29N 32°43' W 117°10'0 0.0
2019-Sep-16 07:59N 32°43' W 117°10'0 0.0
2019-Sep-16 07:29N 32°43' W 117°10'0 0.0
2019-Sep-16 06:59N 32°43' W 117°10'0 0.0
2019-Sep-16 06:29N 32°43' W 117°10'0 0.0
2019-Sep-16 05:59N 32°43' W 117°10'0 0.0
2019-Sep-16 05:29N 32°43' W 117°10'0 0.0
2019-Sep-16 04:59N 32°43' W 117°10'0 0.0
2019-Sep-16 04:29N 32°43' W 117°10'0 0.0
2019-Sep-16 03:59N 32°43' W 117°10'0 0.0
2019-Sep-16 03:29N 32°43' W 117°10'0 0.0
2019-Sep-16 02:59N 32°43' W 117°10'0 0.0
2019-Sep-16 02:29N 32°43' W 117°10'0 0.0
2019-Sep-16 01:59N 32°43' W 117°10'0 0.0
2019-Sep-16 01:29N 32°43' W 117°10'0 0.0
2019-Sep-16 00:59N 32°43' W 117°10'0 0.0
2019-Sep-16 00:29N 32°43' W 117°10'0 0.0
2019-Sep-15 23:59N 32°43' W 117°10'0 0.0
2019-Sep-15 23:28N 32°43' W 117°10'0 0.0
2019-Sep-15 22:58N 32°43' W 117°10'0 0.0
2019-Sep-15 22:30N 32°43' W 117°10'0 0.0
2019-Sep-15 22:00N 32°43' W 117°10'2 4.8
2019-Sep-15 21:30N 32°43' W 117°13'5 9.7
2019-Sep-15 21:00N 32°38' W 117°14'3 6.7
2019-Sep-15 20:30N 32°35' W 117°16'4 7.5
2019-Sep-15 20:00N 32°32' W 117°19'4 7.7
2019-Sep-15 19:30N 32°29' W 117°21'4 8.5
2019-Sep-15 19:00N 32°26' W 117°25'4 8.1
2019-Sep-15 18:30N 32°23' W 117°28'4 7.8
2019-Sep-15 18:00N 32°20' W 117°31'4 8.8
2019-Sep-15 17:30N 32°16' W 117°34'4 8.2
2019-Sep-15 17:00N 32°12' W 117°34'4 8.4
2019-Sep-15 16:30N 32°08' W 117°33'4 8.4
2019-Sep-15 16:00N 32°04' W 117°32'4 8.4
2019-Sep-15 15:30N 31°60' W 117°31'4 8.5
2019-Sep-15 15:00N 31°56' W 117°29'4 8.6
2019-Sep-15 14:30N 31°51' W 117°28'4 8.8
2019-Sep-15 14:00N 31°47' W 117°27'5 9.0
2019-Sep-15 13:30N 31°43' W 117°26'5 9.9
2019-Sep-15 13:00N 31°38' W 117°24'5 9.9
2019-Sep-15 12:30N 31°33' W 117°22'510.1
2019-Sep-15 12:00N 31°28' W 117°21'5 9.9
2019-Sep-15 11:30N 31°24' W 117°19'5 9.2
2019-Sep-15 11:00N 31°19' W 117°18'5 9.2
2019-Sep-15 10:30N 31°15' W 117°17'5 9.2
2019-Sep-15 10:00N 31°10' W 117°15'5 9.3
2019-Sep-15 09:30N 31°06' W 117°14'5 9.2
2019-Sep-15 09:00N 31°01' W 117°13'5 9.1
2019-Sep-15 08:30N 30°57' W 117°12'5 9.0
2019-Sep-15 07:59N 30°52' W 117°11'4 8.7
2019-Sep-15 07:30N 30°48' W 117°09'4 8.5
2019-Sep-15 07:00N 30°44' W 117°08'4 8.8
2019-Sep-15 06:30N 30°40' W 117°07'5 9.3
2019-Sep-15 06:00N 30°35' W 117°06'5 9.5
2019-Sep-15 05:30N 30°31' W 117°04'5 9.4
2019-Sep-15 05:00N 30°26' W 117°03'5 9.2
2019-Sep-15 04:28N 30°21' W 117°02'4 9.4
2019-Sep-15 04:00N 30°17' W 117°01'5 9.6
2019-Sep-15 03:30N 30°12' W 116°60'5 9.3
2019-Sep-15 03:00N 30°08' W 116°58'5 9.0
2019-Sep-15 02:30N 30°03' W 116°57'10 9.1
2019-Sep-15 01:25N 29°54' W 116°54'4 9.5
2019-Sep-15 00:58N 29°50' W 116°53'4 9.6
2019-Sep-15 00:30N 29°45' W 116°52'5 9.3
2019-Sep-14 23:57N 29°40' W 116°50'4 8.9
2019-Sep-14 23:30N 29°37' W 116°49'5 8.9
2019-Sep-14 22:59N 29°32' W 116°48'5 9.2
2019-Sep-14 22:30N 29°28' W 116°46'18 8.7
2019-Sep-14 20:24N 29°10' W 116°41'6 9.0
2019-Sep-14 19:46N 29°05' W 116°39'2 9.1
2019-Sep-14 19:30N 29°02' W 116°39'5 9.1
2019-Sep-14 18:58N 28°58' W 116°37'4 9.2
2019-Sep-14 18:30N 28°54' W 116°36'5 9.1
2019-Sep-14 18:00N 28°49' W 116°35'5 9.1
2019-Sep-14 17:30N 28°45' W 116°34'5 9.2
2019-Sep-14 16:59N 28°40' W 116°33'4 9.3
2019-Sep-14 16:30N 28°36' W 116°32'5 9.5
2019-Sep-14 16:00N 28°31' W 116°31'5 9.5
2019-Sep-14 15:30N 28°26' W 116°30'510.0
2019-Sep-14 15:00N 28°22' W 116°28'5 9.8
2019-Sep-14 14:30N 28°17' W 116°27'8 9.7
2019-Sep-14 13:41N 28°09' W 116°24'3110.1
2019-Sep-14 10:38N 27°44' W 116°05'510.5
2019-Sep-14 10:10N 27°40' W 116°01'69 9.8
2019-Sep-14 03:10N 26°47' W 115°12'1 9.4
2019-Sep-14 03:00N 26°46' W 115°11'  

Dump ship's entire track history